createdAt,value
2023-06-07T00:06:16.078Z,24.30
2023-06-07T00:16:23.152Z,24.30
2023-06-07T00:26:31.687Z,24.40
2023-06-07T00:36:38.899Z,24.40
2023-06-07T00:46:48.432Z,24.50
2023-06-07T00:56:55.449Z,24.60
2023-06-07T01:07:04.859Z,24.60
2023-06-07T01:17:13.517Z,24.80
2023-06-07T01:27:24.027Z,24.90
2023-06-07T01:37:31.421Z,25.00
2023-06-07T01:47:41.168Z,25.10
2023-06-07T01:57:56.359Z,25.20
2023-06-07T02:08:10.179Z,25.30
2023-06-07T02:18:21.871Z,25.40
2023-06-07T02:28:34.851Z,25.50
2023-06-07T02:38:41.767Z,25.60
2023-06-07T02:48:50.889Z,25.60
2023-06-07T02:58:57.902Z,25.70
2023-06-07T03:09:10.160Z,25.70
2023-06-07T03:19:19.138Z,25.70
2023-06-07T03:29:28.588Z,25.60
2023-06-07T03:39:35.940Z,25.60
2023-06-07T03:49:46.852Z,25.60
2023-06-07T03:59:54.387Z,25.70
2023-06-07T04:10:03.412Z,25.80
2023-06-07T04:20:12.647Z,25.80
2023-06-07T04:30:22.121Z,25.80
2023-06-07T04:40:29.217Z,25.80
2023-06-07T04:50:41.073Z,25.80
2023-06-07T05:00:49.996Z,25.80
2023-06-07T05:10:59.050Z,25.80
2023-06-07T05:21:07.499Z,25.90
2023-06-07T05:31:16.271Z,25.90
2023-06-07T05:41:23.784Z,25.90
2023-06-07T05:51:33.046Z,26.00
2023-06-07T06:01:40.085Z,26.00
2023-06-07T06:11:49.776Z,26.00
2023-06-07T06:21:56.795Z,26.00
2023-06-07T06:32:05.404Z,25.90
2023-06-07T06:42:12.824Z,26.00
2023-06-07T06:52:46.036Z,26.00
2023-06-07T07:02:53.497Z,26.00
2023-06-07T07:13:02.454Z,26.00
2023-06-07T07:23:09.345Z,26.00
2023-06-07T07:33:18.129Z,26.00
2023-06-07T07:43:24.944Z,25.90
2023-06-07T07:53:35.578Z,25.90
2023-06-07T08:03:43.288Z,25.80
2023-06-07T08:13:52.209Z,25.80
2023-06-07T08:23:59.255Z,25.80
2023-06-07T08:34:07.852Z,25.70
2023-06-07T08:44:14.853Z,25.70
2023-06-07T08:54:26.530Z,25.70
2023-06-07T09:04:35.306Z,25.70
2023-06-07T09:14:44.599Z,25.70
2023-06-07T09:24:51.696Z,25.70
2023-06-07T09:35:15.704Z,25.70
2023-06-07T09:45:23.417Z,25.70
2023-06-07T09:55:33.780Z,25.70
2023-06-07T10:05:40.859Z,25.60
2023-06-07T10:15:51.036Z,25.60
2023-06-07T10:26:07.221Z,25.60
2023-06-07T10:36:16.050Z,25.60
2023-06-07T10:46:25.603Z,25.60
2023-06-07T10:56:36.218Z,25.60
2023-06-07T11:07:22.984Z,25.60
2023-06-07T11:17:56.034Z,25.60
2023-06-07T11:28:03.506Z,25.50
2023-06-07T11:38:12.088Z,25.50
2023-06-07T11:48:19.701Z,25.50
2023-06-07T11:58:29.205Z,25.50
2023-06-07T12:08:36.577Z,25.50
2023-06-07T12:18:45.916Z,25.50
2023-06-07T12:28:53.506Z,25.50
2023-06-07T12:39:03.382Z,25.50
2023-06-07T12:49:10.276Z,25.50
2023-06-07T12:59:19.474Z,25.50
2023-06-07T13:09:26.512Z,25.50
2023-06-07T13:19:35.048Z,25.50
2023-06-07T13:29:42.787Z,25.50
2023-06-07T13:39:51.475Z,25.50
2023-06-07T13:49:58.506Z,25.50
2023-06-07T14:00:08.586Z,25.50
2023-06-07T14:10:18.896Z,25.60
2023-06-07T14:20:27.479Z,25.60
2023-06-07T14:30:34.358Z,25.60
2023-06-07T14:40:43.045Z,25.60
2023-06-07T14:50:55.211Z,25.50
2023-06-07T15:01:04.414Z,25.50
2023-06-07T15:11:11.361Z,25.60
2023-06-07T15:21:20.686Z,25.60
2023-06-07T15:31:28.068Z,25.70
2023-06-07T15:41:36.722Z,25.80
2023-06-07T15:51:43.631Z,25.80
2023-06-07T16:01:53.767Z,25.80
2023-06-07T16:12:00.670Z,25.90
2023-06-07T16:22:09.575Z,25.90
2023-06-07T16:32:18.807Z,25.90
2023-06-07T16:42:28.713Z,25.80
2023-06-07T16:52:36.405Z,25.80
2023-06-07T17:02:48.176Z,26.00
2023-06-07T17:12:56.243Z,26.00
2023-06-07T17:23:10.635Z,25.90
2023-06-07T17:33:32.197Z,25.90
2023-06-07T17:43:40.989Z,26.00
2023-06-07T17:53:51.210Z,26.00
2023-06-07T18:04:00.467Z,26.00
2023-06-07T18:14:07.460Z,26.00
2023-06-07T18:24:17.411Z,26.00
2023-06-07T18:34:26.085Z,26.10
2023-06-07T18:44:36.013Z,26.10
2023-06-07T18:54:42.951Z,26.10
2023-06-07T19:04:53.264Z,26.10
2023-06-07T19:15:02.073Z,26.10
2023-06-07T19:25:12.545Z,26.20
2023-06-07T19:35:19.807Z,26.20
2023-06-07T19:45:28.610Z,26.20
2023-06-07T19:55:35.708Z,26.20
2023-06-07T20:05:46.864Z,26.20
2023-06-07T20:15:53.721Z,26.00
2023-06-07T20:26:02.328Z,25.90
2023-06-07T20:36:09.969Z,25.80
2023-06-07T20:46:18.582Z,25.60
2023-06-07T20:56:25.579Z,25.70
2023-06-07T21:06:37.905Z,25.70
2023-06-07T21:16:48.594Z,25.70
2023-06-07T21:37:48.616Z,25.70
2023-06-07T21:47:55.663Z,25.50
2023-06-07T21:58:04.256Z,25.60
2023-06-07T22:08:18.229Z,25.60
2023-06-07T22:18:33.010Z,25.70
2023-06-07T22:28:42.156Z,25.90
2023-06-07T22:38:50.896Z,25.90
2023-06-07T22:48:59.621Z,26.00
2023-06-07T22:59:12.656Z,26.00
2023-06-07T23:09:23.959Z,26.10
2023-06-07T23:19:32.619Z,26.10
2023-06-07T23:29:39.680Z,26.10
2023-06-07T23:39:48.183Z,26.20
2023-06-07T23:49:55.123Z,26.30
